createdAt,value
2018-11-07T00:01:29.566Z,11.70
2018-11-07T00:03:57.322Z,11.60
2018-11-07T00:06:25.029Z,11.60
2018-11-07T00:08:52.804Z,11.60
2018-11-07T00:11:20.530Z,11.60
2018-11-07T00:13:48.384Z,11.50
2018-11-07T00:18:43.695Z,11.50
2018-11-07T00:21:11.412Z,11.50
2018-11-07T00:23:39.162Z,11.40
2018-11-07T00:26:06.849Z,11.40
2018-11-07T00:28:34.556Z,11.40
2018-11-07T00:33:29.972Z,11.50
2018-11-07T00:38:25.364Z,11.50
2018-11-07T00:40:53.091Z,11.50
2018-11-07T00:43:20.834Z,11.50
2018-11-07T00:45:48.583Z,11.50
2018-11-07T00:48:16.315Z,11.50
2018-11-07T00:50:44.080Z,11.50
2018-11-07T00:53:11.787Z,11.60
2018-11-07T00:55:39.517Z,11.60
2018-11-07T00:58:07.309Z,11.70
2018-11-07T01:00:34.990Z,11.60
2018-11-07T01:03:02.753Z,11.60
2018-11-07T01:05:30.540Z,11.60
2018-11-07T01:07:58.301Z,11.60
2018-11-07T01:10:26.062Z,11.60
2018-11-07T01:12:53.793Z,11.60
2018-11-07T01:15:21.517Z,11.60
2018-11-07T01:17:49.252Z,11.70
2018-11-07T01:20:17.027Z,11.80
2018-11-07T01:22:44.780Z,11.80
2018-11-07T01:25:15.683Z,11.80
2018-11-07T01:27:43.393Z,11.80
2018-11-07T01:30:12.651Z,11.80
2018-11-07T01:32:40.565Z,11.80
2018-11-07T01:35:08.747Z,11.80
2018-11-07T01:37:36.427Z,11.90
2018-11-07T01:42:33.149Z,11.80
2018-11-07T01:45:00.910Z,11.80
2018-11-07T01:47:28.647Z,11.70
2018-11-07T01:49:56.404Z,11.60
2018-11-07T01:52:24.106Z,11.60
2018-11-07T01:54:51.877Z,11.60
2018-11-07T02:02:14.911Z,11.50
2018-11-07T02:07:10.245Z,11.50
2018-11-07T02:09:37.977Z,11.50
2018-11-07T02:12:05.803Z,11.50
2018-11-07T02:14:33.622Z,11.40
2018-11-07T02:17:01.285Z,11.50
2018-11-07T02:21:56.663Z,11.50
2018-11-07T02:24:24.404Z,11.50
2018-11-07T02:26:52.126Z,11.50
2018-11-07T02:29:19.871Z,11.50
2018-11-07T02:31:47.596Z,11.50
2018-11-07T02:34:15.821Z,11.50
2018-11-07T02:36:43.771Z,11.40
2018-11-07T02:39:12.943Z,11.30
2018-11-07T02:41:41.278Z,11.40
2018-11-07T02:44:09.740Z,11.40
2018-11-07T02:49:05.111Z,11.40
2018-11-07T02:51:32.797Z,11.40
2018-11-07T02:54:01.322Z,11.40
2018-11-07T02:56:29.084Z,11.40
2018-11-07T02:58:57.300Z,11.30
2018-11-07T03:01:25.189Z,11.20
2018-11-07T03:03:52.891Z,11.20
2018-11-07T03:08:48.321Z,11.10
2018-11-07T03:11:17.786Z,11.00
2018-11-07T03:13:45.556Z,11.00
2018-11-07T03:16:13.284Z,10.90
2018-11-07T03:18:41.054Z,10.90
2018-11-07T03:21:08.802Z,10.80
2018-11-07T03:23:36.528Z,10.80
2018-11-07T03:26:04.311Z,10.80
2018-11-07T03:28:32.097Z,10.70
2018-11-07T03:30:59.902Z,10.80
2018-11-07T03:33:27.652Z,10.70
2018-11-07T03:38:23.010Z,10.60
2018-11-07T03:40:50.769Z,10.70
2018-11-07T03:43:18.517Z,10.70
2018-11-07T03:45:51.988Z,10.70
2018-11-07T03:48:19.818Z,10.70
2018-11-07T03:50:47.592Z,10.70
2018-11-07T03:53:17.475Z,10.70
2018-11-07T03:55:45.321Z,10.60
2018-11-07T04:03:08.362Z,10.50
2018-11-07T04:05:36.144Z,10.40
2018-11-07T04:08:03.942Z,10.40
2018-11-07T04:10:31.668Z,10.40
2018-11-07T04:12:59.519Z,10.40
2018-11-07T04:15:27.283Z,10.40
2018-11-07T04:20:22.688Z,10.40
2018-11-07T04:22:50.458Z,10.40
2018-11-07T04:25:18.259Z,10.40
2018-11-07T04:27:46.006Z,10.50
2018-11-07T04:30:13.749Z,10.50
2018-11-07T04:35:10.926Z,10.50
2018-11-07T04:37:38.926Z,10.50
2018-11-07T04:40:08.050Z,10.50
2018-11-07T04:42:35.874Z,10.50
2018-11-07T04:49:59.166Z,10.40
2018-11-07T04:52:26.894Z,10.30
2018-11-07T04:54:54.694Z,10.30
2018-11-07T04:57:22.497Z,10.30
2018-11-07T04:59:50.252Z,10.20
2018-11-07T05:02:18.036Z,10.20
2018-11-07T05:04:45.857Z,10.20
2018-11-07T05:09:41.185Z,10.20
2018-11-07T05:12:08.940Z,10.10
2018-11-07T05:14:36.732Z,10.00
2018-11-07T05:17:04.599Z,9.90
2018-11-07T05:19:32.452Z,9.90
2018-11-07T05:22:00.308Z,9.90
2018-11-07T05:24:28.085Z,9.90
2018-11-07T05:26:55.814Z,9.90
2018-11-07T05:29:23.598Z,9.80
2018-11-07T05:31:51.348Z,9.90
2018-11-07T05:36:46.737Z,10.00
2018-11-07T05:39:14.514Z,9.90
2018-11-07T05:41:42.277Z,10.00
2018-11-07T05:46:37.626Z,10.10
2018-11-07T05:49:05.441Z,10.10
2018-11-07T05:51:33.169Z,10.10
2018-11-07T05:54:00.964Z,10.20
2018-11-07T05:58:56.413Z,10.10
2018-11-07T06:01:24.168Z,10.10
2018-11-07T06:03:51.895Z,10.10
2018-11-07T06:08:47.304Z,10.00
2018-11-07T06:11:15.034Z,10.10
2018-11-07T06:13:42.841Z,10.10
2018-11-07T06:16:10.679Z,10.10
2018-11-07T06:18:38.351Z,10.00
2018-11-07T06:23:33.839Z,10.00
2018-11-07T06:26:01.715Z,10.00
2018-11-07T06:28:29.547Z,10.00
2018-11-07T06:30:57.460Z,10.00
2018-11-07T06:33:25.277Z,9.90
2018-11-07T06:40:48.958Z,10.00
2018-11-07T06:43:16.699Z,10.00
2018-11-07T06:45:44.508Z,9.90
2018-11-07T06:48:12.340Z,10.00
2018-11-07T06:50:40.093Z,10.00
2018-11-07T06:53:07.816Z,10.10
2018-11-07T06:55:35.617Z,10.10
2018-11-07T06:58:03.334Z,10.10
2018-11-07T07:00:33.762Z,10.10
2018-11-07T07:03:02.466Z,10.20
2018-11-07T07:05:30.302Z,10.20
2018-11-07T07:07:58.089Z,10.20
2018-11-07T07:10:26.759Z,10.30
2018-11-07T07:12:55.958Z,10.30
2018-11-07T07:15:23.782Z,10.30
2018-11-07T07:17:51.654Z,10.40
2018-11-07T07:20:20.429Z,10.50
2018-11-07T07:22:48.788Z,10.50
2018-11-07T07:25:16.883Z,10.60
2018-11-07T07:27:45.368Z,10.60
2018-11-07T07:30:14.550Z,10.70
2018-11-07T07:35:11.543Z,10.80
2018-11-07T07:37:39.362Z,10.90
2018-11-07T07:40:09.674Z,10.90
2018-11-07T07:42:38.422Z,11.10
2018-11-07T07:47:36.594Z,11.20
2018-11-07T07:50:05.952Z,11.30
2018-11-07T07:55:01.410Z,11.50
2018-11-07T07:57:29.150Z,11.60
2018-11-07T07:59:57.039Z,11.70
2018-11-07T08:02:25.167Z,11.90
2018-11-07T08:04:53.188Z,12.00
2018-11-07T08:07:20.985Z,12.10
2018-11-07T08:09:49.044Z,12.20
2018-11-07T08:12:17.133Z,12.20
2018-11-07T08:14:45.263Z,12.30
2018-11-07T08:17:13.323Z,12.50
2018-11-07T08:24:36.729Z,12.80
2018-11-07T08:27:04.838Z,12.80
2018-11-07T08:32:00.385Z,13.00
2018-11-07T08:36:55.799Z,14.10
2018-11-07T08:41:51.340Z,15.60
2018-11-07T08:46:46.816Z,17.00
2018-11-07T08:49:14.613Z,17.10
2018-11-07T08:51:42.442Z,17.40
2018-11-07T08:54:10.266Z,17.90
2018-11-07T08:56:38.048Z,18.20
2018-11-07T08:59:05.869Z,18.30
2018-11-07T09:06:29.275Z,18.60
2018-11-07T09:08:59.595Z,18.40
2018-11-07T09:11:27.721Z,18.80
2018-11-07T09:13:55.530Z,18.90
2018-11-07T09:16:23.807Z,19.20
2018-11-07T09:18:51.624Z,19.40
2018-11-07T09:23:47.071Z,19.70
2018-11-07T09:26:14.821Z,19.10
2018-11-07T09:28:42.575Z,18.50
2018-11-07T09:31:12.118Z,19.00
2018-11-07T09:33:39.922Z,19.70
2018-11-07T09:36:07.618Z,20.20
2018-11-07T09:38:35.397Z,20.40
2018-11-07T09:41:03.223Z,20.50
2018-11-07T09:43:30.992Z,20.90
2018-11-07T09:45:58.813Z,21.30
2018-11-07T09:48:26.625Z,20.90
2018-11-07T09:50:54.430Z,21.30
2018-11-07T09:53:22.288Z,20.70
2018-11-07T09:58:17.792Z,21.30
2018-11-07T10:00:45.584Z,21.10
2018-11-07T10:08:08.773Z,19.10
2018-11-07T10:10:37.117Z,18.70
2018-11-07T10:13:05.294Z,18.60
2018-11-07T10:20:29.530Z,18.40
2018-11-07T10:22:57.794Z,18.20
2018-11-07T10:25:25.755Z,17.60
2018-11-07T10:27:54.060Z,17.50
2018-11-07T10:30:21.693Z,17.20
2018-11-07T10:32:50.070Z,18.10
2018-11-07T10:35:17.944Z,18.50
2018-11-07T10:37:45.766Z,19.70
2018-11-07T10:40:22.273Z,21.00
2018-11-07T10:42:50.082Z,21.30
2018-11-07T10:45:17.940Z,21.10
2018-11-07T10:47:46.686Z,20.20
2018-11-07T10:50:15.500Z,19.50
2018-11-07T10:52:44.100Z,19.50
2018-11-07T10:55:12.935Z,19.50
2018-11-07T10:57:40.766Z,19.20
2018-11-07T11:00:18.315Z,18.70
2018-11-07T11:02:47.532Z,17.70
2018-11-07T11:05:16.733Z,17.00
2018-11-07T11:07:44.544Z,16.70
2018-11-07T11:10:13.557Z,16.50
2018-11-07T11:12:42.370Z,16.60
2018-11-07T11:15:11.323Z,16.80
2018-11-07T11:17:39.125Z,17.00
2018-11-07T11:20:09.241Z,17.20
2018-11-07T11:22:36.997Z,17.30
2018-11-07T11:25:04.911Z,17.00
2018-11-07T11:27:32.696Z,16.80
2018-11-07T11:37:23.621Z,16.60
2018-11-07T11:39:51.438Z,16.30
2018-11-07T11:42:19.320Z,16.40
2018-11-07T11:44:47.139Z,16.30
2018-11-07T11:47:14.952Z,16.50
2018-11-07T11:52:10.496Z,16.50
2018-11-07T11:54:38.281Z,16.50
2018-11-07T11:57:06.090Z,16.50
2018-11-07T11:59:35.803Z,16.60
2018-11-07T12:02:03.730Z,16.70
2018-11-07T12:04:31.569Z,16.80
2018-11-07T12:09:27.001Z,16.80
2018-11-07T12:11:54.770Z,16.80
2018-11-07T12:14:22.572Z,16.80
2018-11-07T12:16:50.297Z,16.90
2018-11-07T12:21:45.877Z,17.20
2018-11-07T12:24:13.752Z,17.20
2018-11-07T12:26:41.578Z,17.20
2018-11-07T12:29:09.379Z,16.90
2018-11-07T12:31:37.300Z,16.70
2018-11-07T12:34:05.698Z,16.60
2018-11-07T12:36:33.648Z,16.60
2018-11-07T12:39:01.411Z,16.60
2018-11-07T12:41:29.152Z,16.60
2018-11-07T12:43:57.014Z,16.50
2018-11-07T12:46:24.849Z,16.70
2018-11-07T12:48:52.962Z,16.70
2018-11-07T12:51:21.122Z,16.80
2018-11-07T12:53:49.368Z,16.70
2018-11-07T12:56:17.361Z,16.70
2018-11-07T12:58:45.526Z,16.80
2018-11-07T13:03:41.488Z,16.90
2018-11-07T13:06:09.350Z,17.80
2018-11-07T13:08:37.607Z,17.00
2018-11-07T13:11:06.544Z,17.10
2018-11-07T13:18:30.642Z,17.20
2018-11-07T13:20:58.840Z,17.20
2018-11-07T13:23:27.259Z,17.20
2018-11-07T13:25:55.226Z,17.10
2018-11-07T13:28:23.404Z,17.20
2018-11-07T13:30:51.585Z,17.20
2018-11-07T13:33:19.373Z,17.00
2018-11-07T13:38:15.170Z,16.80
2018-11-07T13:40:42.613Z,16.80
2018-11-07T13:43:10.488Z,16.70
2018-11-07T13:45:40.483Z,16.70
2018-11-07T13:48:08.342Z,16.60
2018-11-07T13:50:36.334Z,16.50
2018-11-07T13:53:04.560Z,16.40
2018-11-07T13:55:32.385Z,16.30
2018-11-07T13:58:00.200Z,16.20
2018-11-07T14:00:28.169Z,16.20
2018-11-07T14:02:56.008Z,16.20
2018-11-07T14:05:24.303Z,16.20
2018-11-07T14:07:52.237Z,16.20
2018-11-07T14:10:22.180Z,16.20
2018-11-07T14:12:50.286Z,16.10
2018-11-07T14:15:18.528Z,16.10
2018-11-07T14:17:46.760Z,16.10
2018-11-07T14:20:15.724Z,16.10
2018-11-07T14:22:43.792Z,16.00
2018-11-07T14:25:12.482Z,15.90
2018-11-07T14:27:41.026Z,15.90
2018-11-07T14:30:11.262Z,15.90
2018-11-07T14:32:41.116Z,15.80
2018-11-07T14:35:09.136Z,15.80
2018-11-07T14:37:37.702Z,15.80
2018-11-07T14:42:33.562Z,15.70
2018-11-07T14:45:01.529Z,15.70
2018-11-07T14:47:29.466Z,15.70
2018-11-07T14:52:25.417Z,15.70
2018-11-07T14:54:53.290Z,15.60
2018-11-07T14:57:21.180Z,15.60
2018-11-07T14:59:49.054Z,15.60
2018-11-07T15:02:17.146Z,15.50
2018-11-07T15:07:13.134Z,15.40
2018-11-07T15:09:41.082Z,15.40
2018-11-07T15:12:09.184Z,15.40
2018-11-07T15:14:37.388Z,15.40
2018-11-07T15:17:05.468Z,15.40
2018-11-07T15:22:01.443Z,15.50
2018-11-07T15:24:29.577Z,15.50
2018-11-07T15:26:57.477Z,15.50
2018-11-07T15:29:25.300Z,15.40
2018-11-07T15:31:53.213Z,15.30
2018-11-07T15:34:21.030Z,15.20
2018-11-07T15:39:17.653Z,14.70
2018-11-07T15:41:45.457Z,14.60
2018-11-07T15:46:40.978Z,14.20
2018-11-07T15:49:08.774Z,14.00
2018-11-07T15:51:38.480Z,14.00
2018-11-07T15:54:06.657Z,13.50
2018-11-07T15:56:34.829Z,13.40
2018-11-07T15:59:07.150Z,13.30
2018-11-07T16:01:34.926Z,13.20
2018-11-07T16:04:02.935Z,13.10
2018-11-07T16:06:30.689Z,13.00
2018-11-07T16:08:59.136Z,12.90
2018-11-07T16:11:28.217Z,12.80
2018-11-07T16:13:56.198Z,12.70
2018-11-07T16:18:52.115Z,12.50
2018-11-07T16:21:19.850Z,12.50
2018-11-07T16:23:47.781Z,12.40
2018-11-07T16:26:15.569Z,12.30
2018-11-07T16:28:43.521Z,12.20
2018-11-07T16:34:38.880Z,12.20
2018-11-07T16:37:06.961Z,12.20
2018-11-07T16:39:35.864Z,12.20
2018-11-07T16:42:04.284Z,12.20
2018-11-07T16:44:32.294Z,12.20
2018-11-07T16:47:00.289Z,12.10
2018-11-07T16:49:28.824Z,12.10
2018-11-07T16:51:57.657Z,12.10
2018-11-07T16:54:26.318Z,12.10
2018-11-07T16:56:54.295Z,12.10
2018-11-07T16:59:22.188Z,12.10
2018-11-07T17:01:50.276Z,12.10
2018-11-07T17:04:18.850Z,12.10
2018-11-07T17:06:46.737Z,12.10
2018-11-07T17:09:14.646Z,12.10
2018-11-07T17:11:42.478Z,12.10
2018-11-07T17:16:39.054Z,12.10
2018-11-07T17:19:07.873Z,12.10
2018-11-07T17:21:35.951Z,12.10
2018-11-07T17:24:04.692Z,12.10
2018-11-07T17:26:32.727Z,12.10
2018-11-07T17:29:00.574Z,12.00
2018-11-07T17:31:28.588Z,12.10
2018-11-07T17:33:56.712Z,12.00
2018-11-07T17:36:24.623Z,12.10
2018-11-07T17:38:52.447Z,12.10
2018-11-07T17:41:20.285Z,12.00
2018-11-07T17:43:48.119Z,12.00
2018-11-07T17:46:16.009Z,12.00
2018-11-07T17:48:43.959Z,12.00
2018-11-07T17:51:12.607Z,11.90
2018-11-07T17:53:40.437Z,11.90
2018-11-07T17:56:08.440Z,11.90
2018-11-07T17:58:36.283Z,11.80
2018-11-07T18:01:04.698Z,11.80
2018-11-07T18:03:32.506Z,11.80
2018-11-07T18:06:00.367Z,11.80
2018-11-07T18:08:29.756Z,11.80
2018-11-07T18:10:57.798Z,11.80
2018-11-07T18:15:53.913Z,11.80
2018-11-07T18:18:21.725Z,11.70
2018-11-07T18:20:49.621Z,11.70
2018-11-07T18:23:17.505Z,11.60
2018-11-07T18:25:45.455Z,11.60
2018-11-07T18:28:17.435Z,11.60
2018-11-07T18:30:45.416Z,11.60
2018-11-07T18:33:13.797Z,11.70
2018-11-07T18:35:43.256Z,11.70
2018-11-07T18:38:11.157Z,11.70
2018-11-07T18:40:39.210Z,11.70
2018-11-07T18:43:08.445Z,11.70
2018-11-07T18:45:37.629Z,10.60
2018-11-07T18:48:05.940Z,11.70
2018-11-07T18:50:33.995Z,11.70
2018-11-07T18:53:02.280Z,11.80
2018-11-07T18:55:30.401Z,11.80
2018-11-07T18:57:58.495Z,11.80
2018-11-07T19:00:26.876Z,11.90
2018-11-07T19:02:55.202Z,11.90
2018-11-07T19:05:23.686Z,12.00
2018-11-07T19:07:51.910Z,12.00
2018-11-07T19:10:21.311Z,12.10
2018-11-07T19:15:18.745Z,12.20
2018-11-07T19:17:48.393Z,12.20
2018-11-07T19:20:17.463Z,12.20
2018-11-07T19:25:19.981Z,12.30
2018-11-07T19:27:49.108Z,12.40
2018-11-07T19:30:19.422Z,12.40
2018-11-07T19:32:48.995Z,12.40
2018-11-07T19:35:20.070Z,12.40
2018-11-07T19:37:50.334Z,12.40
2018-11-07T19:40:21.333Z,12.50
2018-11-07T19:42:50.145Z,12.40
2018-11-07T19:47:54.722Z,12.40
2018-11-07T19:53:02.336Z,12.40
2018-11-07T20:00:49.850Z,12.60
2018-11-07T20:03:25.604Z,12.60
2018-11-07T20:05:53.748Z,12.60
2018-11-07T20:08:22.004Z,12.60
2018-11-07T20:13:18.613Z,12.70
2018-11-07T20:15:46.504Z,12.70
2018-11-07T20:18:14.354Z,12.70
2018-11-07T20:20:44.221Z,12.80
2018-11-07T20:23:12.394Z,12.70
2018-11-07T20:25:40.231Z,12.80
2018-11-07T20:28:08.110Z,12.70
2018-11-07T20:30:35.913Z,12.70
2018-11-07T20:33:03.794Z,12.70
2018-11-07T20:35:31.673Z,12.70
2018-11-07T20:37:59.528Z,12.70
2018-11-07T20:40:28.908Z,12.70
2018-11-07T20:42:56.792Z,12.60
2018-11-07T20:45:24.556Z,12.50
2018-11-07T20:47:52.403Z,12.40
2018-11-07T20:50:21.002Z,12.40
2018-11-07T20:52:49.061Z,12.40
2018-11-07T20:55:17.390Z,12.40
2018-11-07T20:57:45.170Z,12.30
2018-11-07T21:00:16.607Z,12.30
2018-11-07T21:02:45.140Z,12.30
2018-11-07T21:05:13.243Z,12.40
2018-11-07T21:10:12.693Z,12.40
2018-11-07T21:15:09.941Z,12.40
2018-11-07T21:20:06.568Z,12.50
2018-11-07T21:22:34.629Z,12.50
2018-11-07T21:25:02.575Z,12.50
2018-11-07T21:29:59.711Z,12.50
2018-11-07T21:32:28.513Z,12.60
2018-11-07T21:34:56.888Z,12.60
2018-11-07T21:37:24.765Z,12.50
2018-11-07T21:39:52.621Z,12.50
2018-11-07T21:42:20.515Z,12.50
2018-11-07T21:44:48.685Z,12.40
2018-11-07T21:47:16.654Z,12.40
2018-11-07T21:49:44.458Z,12.30
2018-11-07T21:52:12.224Z,12.30
2018-11-07T21:54:40.093Z,12.30
2018-11-07T21:59:35.889Z,12.30
2018-11-07T22:02:03.800Z,12.30
2018-11-07T22:04:32.214Z,12.20
2018-11-07T22:09:28.381Z,12.30
2018-11-07T22:11:56.289Z,12.30
2018-11-07T22:16:51.727Z,12.30
2018-11-07T22:19:19.588Z,12.30
2018-11-07T22:21:47.305Z,12.30
2018-11-07T22:24:15.139Z,12.30
2018-11-07T22:29:10.628Z,12.20
2018-11-07T22:34:06.049Z,12.20
2018-11-07T22:36:33.841Z,12.10
2018-11-07T22:39:01.646Z,12.10
2018-11-07T22:41:29.407Z,12.20
2018-11-07T22:46:24.896Z,12.20
2018-11-07T22:48:52.687Z,12.20
2018-11-07T22:53:49.473Z,12.10
2018-11-07T22:56:17.335Z,12.10
2018-11-07T23:01:18.337Z,12.10
2018-11-07T23:03:46.398Z,12.10
2018-11-07T23:08:41.739Z,12.10
2018-11-07T23:13:37.211Z,12.10
2018-11-07T23:16:05.012Z,12.10
2018-11-07T23:18:32.836Z,12.10
2018-11-07T23:21:01.347Z,12.10
2018-11-07T23:23:29.131Z,12.10
2018-11-07T23:25:56.974Z,12.10
2018-11-07T23:28:24.772Z,12.00
2018-11-07T23:30:52.521Z,11.90
2018-11-07T23:35:51.148Z,11.90
2018-11-07T23:38:18.879Z,11.90
2018-11-07T23:40:46.698Z,11.90
2018-11-07T23:43:14.463Z,11.90
2018-11-07T23:45:42.247Z,11.90
2018-11-07T23:48:10.046Z,11.90
2018-11-07T23:50:37.814Z,12.00
2018-11-07T23:53:05.765Z,12.10
2018-11-07T23:55:33.538Z,12.10
2018-11-07T23:58:01.345Z,12.10
